Weather reports worldwide

Advertisment
Toulon/Ile du Levant, France (7678): temperature & dewpoint: 19.09.2018 08:00:00 - 25.09.2018 08:00:00 (CEST)Toulon/Ile du Levant, France (7678): wind speed & gusts: 19.09.2018 08:00:00 - 25.09.2018 08:00:00 (CEST)Toulon/Ile du Levant, France (7678): wind direction: 19.09.2018 08:00:00 - 25.09.2018 08:00:00 (CEST)Toulon/Ile du Levant, France (7678): reduced air pressure: 19.09.2018 08:00:00 - 25.09.2018 08:00:00 (CEST)Toulon/Ile du Levant, France (7678): precipitation: 19.09.2018 08:00:00 - 25.09.2018 08:00:00 (CEST)
Date & Time tt [°C] td [°C] ff [km/h] ff [kn] fx [km/h] fx [kn] dd ppp [hPa] rr [mm]
25.09.2018 08:00:00 - - - - - - - - -
25.09.2018 07:00:00 21,3 13,0 63 34 93 50 E 1022,3 0,0
25.09.2018 06:00:00 21,5 13,4 59 32 91 49 E 1021,7 0,0
25.09.2018 05:00:00 21,7 13,8 59 32 83 45 E 1021,4 -
25.09.2018 04:00:00 22,2 14,6 57 31 80 43 E 1021,1 0,0
25.09.2018 03:00:00 22,7 15,3 46 25 70 38 E 1021,0 0,0
25.09.2018 02:00:00 22,9 15,5 46 25 67 36 E 1020,8 -
25.09.2018 01:00:00 23,2 17,0 26 14 57 31 ESE 1020,8 0,0
25.09.2018 00:00:00 23,4 15,2 22 12 34 18 E 1020,6 0,0
24.09.2018 23:00:00 23,1 13,8 9 5 15 8 ENE 1019,7 -
24.09.2018 22:00:00 22,8 16,1 8 4 13 7 NNE 1019,0 0,0
24.09.2018 21:00:00 22,5 15,3 13 7 18 10 WNW 1018,6 0,0
24.09.2018 20:00:00 23,9 16,7 5 3 15 8 NW 1017,5 -
24.09.2018 19:00:00 23,6 16,4 9 5 18 10 W 1016,8 0,0
24.09.2018 18:00:00 25,7 16,8 2 1 15 8 WNW 1016,1 0,0
24.09.2018 17:00:00 25,5 16,1 9 5 18 10 WNW 1015,9 -
24.09.2018 16:00:00 25,2 14,6 13 7 35 19 W 1016,0 0,0
24.09.2018 15:00:00 25,1 14,5 22 12 35 19 WNW 1015,9 0,0
24.09.2018 14:00:00 27,1 15,1 11 6 22 12 NNW 1015,5 -
24.09.2018 13:00:00 25,9 12,4 18 10 34 18 NW 1015,5 0,0
24.09.2018 12:00:00 24,9 11,8 26 14 57 31 NW 1015,0 0,0
24.09.2018 11:00:00 23,3 11,0 39 21 72 39 NW 1014,5 -
24.09.2018 10:00:00 22,0 9,8 54 29 91 49 NW 1013,1 0,0
24.09.2018 09:00:00 23,6 9,9 55 30 80 43 WNW 1012,8 0,0
24.09.2018 08:00:00 23,6 11,9 55 30 76 41 WNW 1013,0 -
24.09.2018 07:00:00 25,3 13,5 48 26 72 39 WNW 1012,6 0,0
24.09.2018 06:00:00 24,6 16,8 48 26 78 42 W 1012,7 0,0
24.09.2018 05:00:00 24,5 17,0 52 28 80 43 W 1012,9 -
24.09.2018 04:00:00 26,2 15,3 48 26 65 35 WNW 1013,0 0,0
24.09.2018 03:00:00 26,0 16,3 39 21 57 31 WNW 1013,4 0,0
24.09.2018 02:00:00 25,0 18,4 31 17 46 25 WNW 1013,7 -
24.09.2018 01:00:00 24,2 19,7 29 16 44 24 W 1013,9 0,0
24.09.2018 00:00:00 23,8 19,7 26 14 48 26 W 1014,5 0,0
23.09.2018 23:00:00 23,8 20,1 31 17 59 32 W 1014,7 -
23.09.2018 22:00:00 24,2 19,5 39 21 59 32 W 1015,3 0,0
23.09.2018 21:00:00 24,6 19,9 29 16 54 29 W 1015,7 0,0
23.09.2018 20:00:00 23,7 18,6 21 11 31 17 WSW 1015,9 -
23.09.2018 19:00:00 24,9 17,9 16 9 26 14 WSW 1016,2 0,0
23.09.2018 18:00:00 26,4 12,5 11 6 22 12 SW 1016,5 0,0
23.09.2018 17:00:00 25,8 17,4 16 9 24 13 SW 1017,0 -
23.09.2018 16:00:00 26,3 18,2 11 6 21 11 W 1017,6 0,0
23.09.2018 15:00:00 26,8 15,5 9 5 21 11 S 1017,9 0,0
23.09.2018 14:00:00 26,8 14,5 9 5 16 9 S 1018,5 -
23.09.2018 13:00:00 27,7 13,2 4 2 13 7 SW 1018,8 0,0
23.09.2018 12:00:00 27,3 9,6 8 4 13 7 E 1019,0 0,0
23.09.2018 11:00:00 25,3 15,3 4 2 8 4 W 1019,1 -
23.09.2018 10:00:00 24,6 15,5 2 1 8 4 ENE 1018,6 0,0
23.09.2018 09:00:00 24,5 13,7 0 0 11 6 N 1018,2 0,0
23.09.2018 08:00:00 22,1 15,9 0 0 8 4 N 1018,0 -
23.09.2018 07:00:00 21,5 14,4 0 0 9 5 N 1017,6 0,0
23.09.2018 06:00:00 21,9 13,8 8 4 15 8 WNW 1017,5 0,0
23.09.2018 05:00:00 22,1 18,7 9 5 16 9 NNE 1017,5 -
23.09.2018 04:00:00 22,0 19,2 8 4 15 8 NNE 1017,7 0,0
23.09.2018 03:00:00 22,2 20,1 11 6 15 8 NNE 1018,0 0,0
23.09.2018 02:00:00 22,2 19,2 11 6 18 10 NE 1018,3 -
23.09.2018 01:00:00 22,3 18,9 11 6 18 10 ENE 1018,2 0,0
23.09.2018 00:00:00 22,6 18,2 15 8 21 11 E 1018,2 0,0
22.09.2018 23:00:00 22,8 17,3 15 8 24 13 E 1018,1 -
22.09.2018 22:00:00 23,1 16,2 16 9 21 11 E 1017,7 0,0
22.09.2018 21:00:00 23,3 15,6 13 7 22 12 E 1017,2 0,0
22.09.2018 20:00:00 23,4 15,7 13 7 18 10 E 1016,5 -
22.09.2018 19:00:00 24,9 16,1 11 6 16 9 E 1015,7 0,0
22.09.2018 18:00:00 27,2 14,6 8 4 29 16 ESE 1015,3 0,0
22.09.2018 17:00:00 27,2 12,4 24 13 37 20 W 1015,0 -
22.09.2018 16:00:00 26,5 14,3 21 11 39 21 W 1015,3 0,0
22.09.2018 15:00:00 25,5 14,6 28 15 42 23 W 1015,8 0,0
22.09.2018 14:00:00 25,6 14,4 28 15 42 23 W 1015,9 -
22.09.2018 13:00:00 25,5 13,0 29 16 42 23 W 1016,1 0,0
22.09.2018 12:00:00 25,8 9,6 28 15 41 22 W 1016,2 0,0
22.09.2018 11:00:00 24,9 8,4 28 15 42 23 W 1016,3 -
22.09.2018 10:00:00 24,0 9,9 37 20 52 28 WNW 1015,8 0,0
22.09.2018 09:00:00 23,3 11,7 29 16 50 27 W 1015,6 0,0
22.09.2018 08:00:00 22,9 15,5 35 19 55 30 W 1015,1 -
22.09.2018 07:00:00 23,0 16,1 41 22 59 32 WNW 1015,1 0,0
22.09.2018 06:00:00 24,0 13,8 35 19 54 29 WNW 1014,8 0,0
22.09.2018 05:00:00 24,6 13,5 29 16 42 23 WNW 1014,9 -
22.09.2018 04:00:00 23,9 16,9 31 17 46 25 W 1015,0 0,0
22.09.2018 03:00:00 23,9 17,4 28 15 39 21 W 1015,3 0,0
22.09.2018 02:00:00 23,8 18,2 24 13 34 18 WNW 1015,6 -
22.09.2018 01:00:00 23,8 19,1 22 12 39 21 W 1015,5 0,0
22.09.2018 00:00:00 23,7 19,6 29 16 48 26 W 1015,5 0,0
21.09.2018 23:00:00 23,7 20,2 35 19 52 28 W 1015,3 -
21.09.2018 22:00:00 23,8 19,5 31 17 46 25 W 1015,3 0,0
21.09.2018 21:00:00 23,8 20,3 31 17 48 26 W 1015,3 0,0
21.09.2018 20:00:00 24,6 17,8 37 20 55 30 W 1014,5 -
21.09.2018 19:00:00 25,6 15,9 37 20 55 30 W 1014,1 0,0
21.09.2018 18:00:00 26,5 15,8 35 19 55 30 W 1014,1 0,0
21.09.2018 17:00:00 27,7 15,4 34 18 48 26 W 1014,1 -
21.09.2018 16:00:00 27,6 17,5 31 17 46 25 W 1014,7 0,0
21.09.2018 15:00:00 28,7 15,9 29 16 42 23 W 1015,0 0,0
21.09.2018 14:00:00 29,4 15,9 22 12 35 19 WSW 1015,5 -
21.09.2018 13:00:00 29,3 15,8 16 9 22 12 W 1016,0 0,0
21.09.2018 12:00:00 27,4 14,8 11 6 18 10 W 1016,6 0,0
21.09.2018 11:00:00 26,8 13,9 9 5 15 8 W 1016,5 -
21.09.2018 10:00:00 25,2 16,9 5 3 11 6 W 1016,3 0,0
21.09.2018 09:00:00 25,5 15,8 4 2 5 3 S 1016,0 0,0
21.09.2018 08:00:00 23,8 18,7 4 2 5 3 WNW 1015,9 -
21.09.2018 07:00:00 24,6 13,5 5 3 5 3 SE 1015,6 0,0
21.09.2018 06:00:00 24,9 12,8 4 2 5 3 E 1015,4 0,0
21.09.2018 05:00:00 23,9 14,9 4 2 9 5 WNW 1015,8 -
21.09.2018 04:00:00 22,3 19,3 8 4 11 6 WNW 1015,8 0,0
21.09.2018 03:00:00 22,3 19,8 9 5 11 6 W 1016,2 0,0
21.09.2018 02:00:00 22,3 18,5 4 2 9 5 WNW 1016,6 -
21.09.2018 01:00:00 22,8 20,1 5 3 9 5 WNW 1016,6 0,0
21.09.2018 00:00:00 23,4 18,5 5 3 9 5 NNE 1016,9 0,0
20.09.2018 23:00:00 24,0 16,5 5 3 8 4 NE 1017,0 -
20.09.2018 22:00:00 23,5 19,2 5 3 9 5 N 1017,0 0,0
20.09.2018 21:00:00 23,6 17,6 5 3 9 5 NE 1016,9 0,0
20.09.2018 20:00:00 24,2 15,4 5 3 8 4 N 1016,5 -
20.09.2018 19:00:00 25,1 18,5 4 2 9 5 NE 1016,6 0,0
20.09.2018 18:00:00 26,3 18,7 5 3 11 6 ESE 1016,7 0,0
20.09.2018 17:00:00 27,3 18,0 8 4 15 8 SE 1016,9 -
20.09.2018 16:00:00 27,2 18,8 9 5 16 9 ESE 1017,1 0,0
20.09.2018 15:00:00 27,8 19,6 11 6 21 11 ESE 1017,5 0,0
20.09.2018 14:00:00 27,4 18,4 9 5 24 13 ESE 1017,9 -
20.09.2018 13:00:00 26,9 19,5 13 7 24 13 ESE 1018,3 0,0
20.09.2018 12:00:00 27,4 17,8 13 7 21 11 ESE 1018,5 0,0
20.09.2018 11:00:00 27,1 18,4 8 4 13 7 ESE 1018,6 -
20.09.2018 10:00:00 25,6 18,3 8 4 15 8 ESE 1018,5 0,0
20.09.2018 09:00:00 24,3 19,6 9 5 15 8 ESE 1018,3 0,0
20.09.2018 08:00:00 22,5 19,9 8 4 9 5 SE 1018,2 -
20.09.2018 07:00:00 22,2 19,2 8 4 13 7 SE 1018,1 0,0
20.09.2018 06:00:00 22,5 19,3 9 5 15 8 SE 1018,1 0,0
20.09.2018 05:00:00 23,3 17,3 8 4 16 9 E 1018,3 -
20.09.2018 04:00:00 23,3 17,5 11 6 18 10 NNW 1018,4 0,0
20.09.2018 03:00:00 23,4 17,8 13 7 18 10 WNW 1018,6 0,0
20.09.2018 02:00:00 22,8 18,8 15 8 21 11 W 1018,9 -
20.09.2018 01:00:00 23,1 19,1 15 8 21 11 WNW 1019,2 0,0
20.09.2018 00:00:00 23,2 18,1 15 8 21 11 WNW 1019,4 0,0
19.09.2018 23:00:00 22,9 20,6 15 8 16 9 WNW 1019,2 -
19.09.2018 22:00:00 23,2 20,3 11 6 13 7 WNW 1019,2 0,0
19.09.2018 21:00:00 23,3 19,9 8 4 13 7 WNW 1019,1 0,0
19.09.2018 20:00:00 23,5 18,8 9 5 15 8 WNW 1019,0 -
19.09.2018 19:00:00 24,9 19,3 9 5 15 8 W 1018,6 0,0
19.09.2018 18:00:00 25,4 19,3 9 5 16 9 W 1018,4 0,0
19.09.2018 17:00:00 26,3 17,6 9 5 16 9 WNW 1018,3 -
19.09.2018 16:00:00 27,2 17,9 8 4 18 10 SE 1018,5 0,0
19.09.2018 15:00:00 26,9 18,5 11 6 21 11 ESE 1018,7 0,0
19.09.2018 14:00:00 27,8 17,6 15 8 24 13 E 1019,0 -
19.09.2018 13:00:00 27,9 18,3 15 8 24 13 E 1019,5 0,0
19.09.2018 12:00:00 26,6 18,2 11 6 22 12 E 1019,7 0,0
19.09.2018 11:00:00 25,2 18,9 15 8 29 16 NE 1019,8 -
19.09.2018 10:00:00 24,2 18,2 13 7 26 14 ENE 1019,6 0,0
19.09.2018 09:00:00 22,7 18,2 11 6 22 12 NE 1019,3 0,0
19.09.2018 08:00:00 22,1 17,9 13 7 22 12 NE 1018,8 -

tt = temperature
td = dewpoint
ff = wind speed
fx = gusts
dd = wind direction
ppp = reduced air pressure
rr = precipitation

Next stations